createdAt,value
2019-04-14T00:01:04.336Z,85.45
2019-04-14T00:03:39.077Z,85.56
2019-04-14T00:06:09.189Z,84.83
2019-04-14T00:08:39.490Z,85.01
2019-04-14T00:11:10.418Z,84.77
2019-04-14T00:13:41.289Z,84.87
2019-04-14T00:16:11.762Z,84.27
2019-04-14T00:18:42.639Z,84.27
2019-04-14T00:21:12.985Z,84.38
2019-04-14T00:23:43.484Z,84.40
2019-04-14T00:26:29.377Z,84.91
2019-04-14T00:29:00.223Z,84.65
2019-04-14T00:31:30.713Z,84.49
2019-04-14T00:34:02.883Z,84.44
2019-04-14T00:36:37.331Z,84.26
2019-04-14T00:39:18.297Z,84.67
2019-04-14T00:41:53.899Z,84.81
2019-04-14T00:44:26.151Z,84.74
2019-04-14T00:46:58.268Z,85.19
2019-04-14T00:49:29.014Z,84.84
2019-04-14T00:51:59.370Z,84.90
2019-04-14T00:54:30.443Z,84.55
2019-04-14T00:57:00.880Z,84.49
2019-04-14T00:59:31.205Z,84.25
2019-04-14T01:02:01.385Z,84.42
2019-04-14T01:04:31.659Z,84.54
2019-04-14T01:07:02.207Z,84.52
2019-04-14T01:09:32.670Z,84.71
2019-04-14T01:12:03.807Z,84.24
2019-04-14T01:14:34.228Z,84.20
2019-04-14T01:17:04.805Z,84.08
2019-04-14T01:19:37.295Z,83.89
2019-04-14T01:22:07.497Z,84.46
2019-04-14T01:24:40.318Z,83.52
2019-04-14T01:27:10.568Z,83.50
2019-04-14T01:29:40.561Z,83.57
2019-04-14T01:32:11.197Z,84.02
2019-04-14T01:34:41.284Z,83.89
2019-04-14T01:37:11.517Z,83.21
2019-04-14T01:39:41.668Z,83.35
2019-04-14T01:42:11.846Z,83.91
2019-04-14T01:44:41.777Z,83.77
2019-04-14T01:47:11.783Z,83.50
2019-04-14T01:49:41.923Z,83.26
2019-04-14T01:52:15.126Z,83.63
2019-04-14T01:54:49.611Z,83.23
2019-04-14T01:57:28.763Z,83.45
2019-04-14T02:00:01.050Z,83.46
2019-04-14T02:02:31.489Z,83.63
2019-04-14T02:05:01.896Z,83.58
2019-04-14T02:07:31.981Z,83.19
2019-04-14T02:10:02.036Z,83.15
2019-04-14T02:12:32.340Z,82.81
2019-04-14T02:15:02.865Z,83.32
2019-04-14T02:17:33.004Z,83.35
2019-04-14T02:20:03.348Z,83.12
2019-04-14T02:22:33.567Z,82.48
2019-04-14T02:25:03.688Z,82.23
2019-04-14T02:27:33.974Z,83.15
2019-04-14T02:30:07.274Z,82.92
2019-04-14T02:33:05.377Z,82.76
2019-04-14T02:35:40.864Z,82.64
2019-04-14T02:38:13.746Z,83.36
2019-04-14T02:43:21.112Z,83.07
2019-04-14T02:45:44.938Z,82.49
2019-04-14T02:48:29.097Z,81.99
2019-04-14T02:50:43.710Z,81.34
2019-04-14T02:55:49.221Z,81.44
2019-04-14T02:58:36.519Z,81.68
2019-04-14T03:01:02.184Z,81.12
2019-04-14T03:06:14.584Z,81.43
2019-04-14T03:10:55.847Z,81.09
2019-04-14T03:13:30.776Z,81.87
2019-04-14T03:16:02.477Z,81.48
2019-04-14T03:18:37.873Z,81.16
2019-04-14T03:23:55.694Z,80.78
2019-04-14T03:26:23.029Z,81.43
2019-04-14T03:28:51.262Z,81.32
2019-04-14T03:37:15.899Z,80.88
2019-04-14T03:44:10.017Z,80.83
2019-04-14T03:46:45.147Z,80.80
2019-04-14T03:51:44.548Z,81.46
2019-04-14T03:54:10.955Z,81.63
2019-04-14T03:56:46.665Z,81.21
2019-04-14T03:59:17.698Z,81.38
2019-04-14T04:01:48.009Z,81.50
2019-04-14T04:04:18.456Z,81.58
2019-04-14T04:06:48.693Z,81.08
2019-04-14T04:09:19.362Z,80.78
2019-04-14T04:11:49.848Z,81.30
2019-04-14T04:14:20.339Z,80.89
2019-04-14T04:16:55.105Z,80.39
2019-04-14T04:19:45.231Z,80.28
2019-04-14T04:22:23.676Z,80.38
2019-04-14T04:25:11.807Z,80.42
2019-04-14T04:27:59.500Z,79.45
2019-04-14T04:30:43.385Z,79.65
2019-04-14T04:33:22.004Z,79.27
2019-04-14T04:35:54.332Z,79.20
2019-04-14T04:38:26.922Z,78.81
2019-04-14T04:40:57.207Z,78.31
2019-04-14T04:43:27.675Z,78.14
2019-04-14T04:45:58.129Z,78.23
2019-04-14T04:48:28.479Z,77.49
2019-04-14T04:51:00.663Z,77.70
2019-04-14T04:53:31.319Z,77.98
2019-04-14T04:56:01.562Z,77.62
2019-04-14T04:58:32.675Z,77.19
2019-04-14T05:01:03.498Z,76.47
2019-04-14T05:03:33.999Z,76.40
2019-04-14T05:06:30.880Z,76.23
2019-04-14T05:09:14.933Z,76.89
2019-04-14T05:11:52.571Z,76.13
2019-04-14T05:14:26.202Z,75.66
2019-04-14T05:16:57.146Z,75.43
2019-04-14T05:19:31.854Z,75.74
2019-04-14T05:21:58.876Z,75.71
2019-04-14T05:24:29.110Z,75.88
2019-04-14T05:26:59.278Z,75.45
2019-04-14T05:29:29.736Z,75.16
2019-04-14T05:32:00.145Z,75.41
2019-04-14T05:34:30.488Z,75.11
2019-04-14T05:37:00.735Z,74.54
2019-04-14T05:39:30.837Z,73.92
2019-04-14T05:42:09.500Z,74.04
2019-04-14T05:44:32.507Z,74.27
2019-04-14T05:47:02.475Z,73.67
2019-04-14T05:49:39.145Z,74.38
2019-04-14T05:52:04.080Z,74.08
2019-04-14T05:54:34.030Z,73.78
2019-04-14T05:57:04.411Z,73.49
2019-04-14T05:59:35.328Z,72.89
2019-04-14T06:02:05.473Z,72.22
2019-04-14T06:04:35.406Z,72.00
2019-04-14T06:07:05.803Z,73.15
2019-04-14T06:09:35.750Z,70.98
2019-04-14T06:12:05.731Z,71.78
2019-04-14T06:14:35.668Z,70.45
2019-04-14T06:17:05.678Z,69.95
2019-04-14T06:19:38.145Z,68.92
2019-04-14T06:22:07.321Z,70.47
2019-04-14T06:24:37.258Z,69.36
2019-04-14T06:27:07.259Z,69.07
2019-04-14T06:29:37.214Z,67.97
2019-04-14T06:32:11.775Z,67.47
2019-04-14T06:34:46.331Z,67.69
2019-04-14T06:37:27.171Z,67.66
2019-04-14T06:39:58.814Z,67.32
2019-04-14T06:42:28.883Z,67.06
2019-04-14T06:44:58.835Z,66.21
2019-04-14T06:47:28.871Z,67.36
2019-04-14T06:49:58.960Z,66.99
2019-04-14T06:52:28.913Z,66.98
2019-04-14T06:54:58.886Z,66.08
2019-04-14T06:57:28.880Z,65.55
2019-04-14T06:59:58.857Z,65.19
2019-04-14T07:02:28.832Z,65.00
2019-04-14T07:04:58.814Z,65.42
2019-04-14T07:07:28.762Z,64.75
2019-04-14T07:09:58.753Z,65.08
2019-04-14T07:12:28.787Z,65.19
2019-04-14T07:14:58.861Z,66.10
2019-04-14T07:17:28.804Z,66.02
2019-04-14T07:20:02.102Z,66.19
2019-04-14T07:22:30.614Z,66.17
2019-04-14T07:25:00.759Z,66.78
2019-04-14T07:27:30.807Z,65.93
2019-04-14T07:30:11.397Z,66.18
2019-04-14T07:32:59.005Z,66.17
2019-04-14T07:35:48.950Z,66.24
2019-04-14T07:38:23.559Z,64.78
2019-04-14T07:41:07.118Z,65.55
2019-04-14T07:43:53.675Z,65.53
2019-04-14T07:46:43.542Z,65.33
2019-04-14T07:49:20.789Z,64.71
2019-04-14T07:52:01.176Z,64.38
2019-04-14T07:54:34.313Z,64.59
2019-04-14T07:57:05.860Z,64.08
2019-04-14T07:59:40.316Z,64.45
2019-04-14T08:02:11.962Z,64.47
2019-04-14T08:04:45.564Z,64.56
2019-04-14T08:07:15.256Z,65.10
2019-04-14T08:09:45.353Z,65.06
2019-04-14T08:12:17.577Z,64.08
2019-04-14T08:14:47.620Z,64.21
2019-04-14T08:17:17.587Z,64.53
2019-04-14T08:19:49.114Z,63.99
2019-04-14T08:22:19.097Z,63.90
2019-04-14T08:24:49.058Z,63.21
2019-04-14T08:27:19.123Z,63.33
2019-04-14T08:29:49.076Z,62.63
2019-04-14T08:32:19.047Z,61.92
2019-04-14T08:34:48.995Z,61.54
2019-04-14T08:37:18.974Z,61.98
2019-04-14T08:39:48.931Z,62.29
2019-04-14T08:42:23.481Z,60.14
2019-04-14T08:44:54.992Z,60.79
2019-04-14T08:47:26.538Z,60.36
2019-04-14T08:50:07.273Z,59.79
2019-04-14T08:52:38.945Z,59.73
2019-04-14T08:55:13.227Z,59.80
2019-04-14T08:57:47.845Z,60.06
2019-04-14T09:00:19.557Z,58.55
2019-04-14T09:03:00.203Z,56.47
2019-04-14T09:05:46.920Z,57.57
2019-04-14T09:08:21.442Z,55.43
2019-04-14T09:10:55.720Z,54.26
2019-04-14T09:13:25.706Z,52.29
2019-04-14T09:15:55.652Z,51.58
2019-04-14T09:18:25.629Z,50.89
2019-04-14T09:20:55.674Z,51.50
2019-04-14T09:23:25.747Z,50.14
2019-04-14T09:25:55.739Z,49.30
2019-04-14T09:28:25.709Z,48.74
2019-04-14T09:30:55.642Z,46.64
2019-04-14T09:33:25.616Z,46.64
2019-04-14T09:35:55.562Z,45.63
2019-04-14T09:38:25.534Z,44.89
2019-04-14T09:40:55.476Z,45.56
2019-04-14T09:43:25.553Z,43.33
2019-04-14T09:45:55.508Z,43.27
2019-04-14T09:48:25.475Z,44.10
2019-04-14T09:51:04.819Z,41.67
2019-04-14T09:53:27.088Z,43.61
2019-04-14T09:55:57.028Z,43.51
2019-04-14T09:58:27.142Z,41.73
2019-04-14T10:00:57.104Z,41.15
2019-04-14T10:03:27.099Z,38.85
2019-04-14T10:05:57.081Z,39.78
2019-04-14T10:08:28.130Z,39.12
2019-04-14T10:10:58.120Z,38.32
2019-04-14T10:13:28.129Z,38.02
2019-04-14T10:15:58.222Z,39.16
2019-04-14T10:18:28.233Z,39.41
2019-04-14T10:20:58.214Z,40.92
2019-04-14T10:23:28.184Z,39.51
2019-04-14T10:25:58.259Z,40.04
2019-04-14T10:28:38.860Z,39.26
2019-04-14T10:31:29.807Z,38.69
2019-04-14T10:36:52.535Z,40.11
2019-04-14T10:42:17.879Z,38.36
2019-04-14T10:45:05.934Z,38.77
2019-04-14T10:47:48.314Z,36.28
2019-04-14T10:50:37.223Z,34.37
2019-04-14T10:53:17.325Z,35.81
2019-04-14T10:55:49.809Z,35.29
2019-04-14T10:58:21.863Z,35.34
2019-04-14T11:01:02.344Z,37.15
2019-04-14T11:03:35.156Z,36.24
2019-04-14T11:06:12.924Z,35.54
2019-04-14T11:08:48.055Z,35.48
2019-04-14T11:11:37.284Z,34.80
2019-04-14T11:17:24.015Z,34.05
2019-04-14T11:19:56.158Z,33.39
2019-04-14T11:22:33.695Z,33.06
2019-04-14T11:31:50.761Z,33.83
2019-04-14T11:34:40.170Z,33.43
2019-04-14T11:37:23.238Z,33.23
2019-04-14T11:40:03.822Z,33.58
2019-04-14T11:43:02.636Z,34.09
2019-04-14T11:45:47.755Z,33.68
2019-04-14T11:52:14.565Z,32.86
2019-04-14T11:54:58.969Z,32.84
2019-04-14T11:57:55.459Z,32.83
2019-04-14T12:04:14.510Z,31.57
2019-04-14T12:07:01.522Z,31.61
2019-04-14T12:09:38.981Z,31.20
2019-04-14T12:12:12.639Z,31.92
2019-04-14T12:14:46.454Z,31.50
2019-04-14T12:17:19.234Z,32.01
2019-04-14T12:19:51.846Z,31.46
2019-04-14T12:22:24.730Z,33.18
2019-04-14T12:24:55.025Z,31.84
2019-04-14T12:27:25.435Z,31.97
2019-04-14T12:29:56.749Z,31.82
2019-04-14T12:32:31.424Z,31.65
2019-04-14T12:35:03.118Z,32.94
2019-04-14T12:37:37.456Z,31.51
2019-04-14T12:40:10.291Z,32.40
2019-04-14T12:42:55.441Z,31.63
2019-04-14T12:45:33.614Z,31.67
2019-04-14T12:48:09.221Z,32.09
2019-04-14T12:50:44.079Z,31.96
2019-04-14T12:53:16.863Z,32.08
2019-04-14T12:55:47.433Z,32.12
2019-04-14T12:58:19.662Z,31.28
2019-04-14T13:00:54.191Z,31.78
2019-04-14T13:03:25.304Z,31.58
2019-04-14T13:05:57.553Z,30.64
2019-04-14T13:08:31.349Z,30.10
2019-04-14T13:11:09.376Z,30.57
2019-04-14T13:13:54.827Z,30.54
2019-04-14T13:16:19.387Z,31.69
2019-04-14T13:18:52.045Z,31.06
2019-04-14T13:21:25.672Z,31.22
2019-04-14T13:24:00.572Z,30.41
2019-04-14T13:26:31.899Z,31.07
2019-04-14T13:29:02.646Z,31.63
2019-04-14T13:31:33.667Z,31.42
2019-04-14T13:34:06.206Z,30.34
2019-04-14T13:36:36.907Z,29.98
2019-04-14T13:39:08.910Z,30.11
2019-04-14T13:41:39.591Z,29.55
2019-04-14T13:44:11.441Z,31.00
2019-04-14T13:46:57.833Z,30.85
2019-04-14T13:49:38.061Z,30.54
2019-04-14T13:52:22.437Z,29.91
2019-04-14T13:55:16.371Z,30.42
2019-04-14T13:57:45.383Z,29.68
2019-04-14T14:00:22.363Z,27.66
2019-04-14T14:03:00.567Z,28.22
2019-04-14T14:05:43.364Z,27.67
2019-04-14T14:08:07.873Z,27.55
2019-04-14T14:10:44.344Z,27.37
2019-04-14T14:13:33.581Z,28.41
2019-04-14T14:16:22.693Z,27.86
2019-04-14T14:19:14.144Z,28.45
2019-04-14T14:21:59.250Z,28.77
2019-04-14T14:24:50.049Z,28.19
2019-04-14T14:27:22.439Z,27.85
2019-04-14T14:29:56.402Z,27.23
2019-04-14T14:32:39.359Z,27.94
2019-04-14T14:35:16.676Z,28.51
2019-04-14T14:37:50.044Z,27.82
2019-04-14T14:47:47.272Z,26.95
2019-04-14T14:50:54.719Z,26.94
2019-04-14T15:17:12.007Z,27.68
2019-04-14T15:20:01.320Z,28.27
2019-04-14T15:25:37.513Z,27.57
2019-04-14T15:40:54.623Z,28.09
2019-04-14T15:43:28.988Z,28.55
2019-04-14T15:49:21.730Z,27.24
2019-04-14T15:52:21.277Z,26.82
2019-04-14T16:08:07.944Z,27.95
2019-04-14T16:10:46.641Z,27.04
2019-04-14T16:19:38.573Z,27.27
2019-04-14T16:22:13.215Z,26.72
2019-04-14T16:24:50.022Z,27.08
2019-04-14T16:27:35.506Z,26.85
2019-04-14T16:54:51.545Z,26.95
2019-04-14T16:57:40.773Z,28.37
2019-04-14T17:00:14.417Z,27.30
2019-04-14T17:02:46.172Z,27.42
2019-04-14T17:05:16.815Z,28.28
2019-04-14T17:07:47.982Z,28.06
2019-04-14T17:10:22.775Z,27.96
2019-04-14T17:12:53.853Z,28.24
2019-04-14T17:15:38.285Z,27.46
2019-04-14T17:18:23.356Z,27.84
2019-04-14T17:21:08.622Z,27.77
2019-04-14T17:23:40.972Z,27.84
2019-04-14T17:26:16.174Z,27.96
2019-04-14T17:28:57.775Z,28.78
2019-04-14T17:31:46.118Z,28.07
2019-04-14T17:34:23.715Z,28.75
2019-04-14T17:37:08.007Z,28.70
2019-04-14T17:39:45.804Z,29.00
2019-04-14T17:42:19.112Z,28.98
2019-04-14T17:45:58.253Z,29.18
2019-04-14T17:48:12.312Z,29.39
2019-04-14T17:50:49.811Z,29.57
2019-04-14T18:19:16.284Z,32.10
2019-04-14T18:21:46.596Z,32.91
2019-04-14T18:24:18.327Z,33.44
2019-04-14T18:26:48.431Z,33.60
2019-04-14T18:29:19.976Z,33.87
2019-04-14T18:37:52.155Z,34.40
2019-04-14T18:40:23.880Z,34.61
2019-04-14T18:42:58.404Z,34.89
2019-04-14T18:45:30.147Z,34.43
2019-04-14T18:51:49.978Z,34.77
2019-04-14T18:54:33.869Z,35.02
2019-04-14T19:09:48.647Z,35.53
2019-04-14T19:29:12.767Z,36.44
2019-04-14T19:31:31.301Z,36.11
2019-04-14T19:31:45.239Z,36.62
2019-04-14T19:34:16.720Z,36.69
2019-04-14T19:36:50.208Z,37.20
2019-04-14T19:49:22.776Z,37.40
2019-04-14T19:54:48.995Z,37.43
2019-04-14T19:55:40.038Z,37.49
2019-04-14T19:58:55.069Z,37.61
2019-04-14T20:07:33.274Z,38.11
2019-04-14T20:08:14.756Z,37.80
2019-04-14T20:10:07.594Z,38.42
2019-04-14T20:12:48.865Z,39.19
2019-04-14T20:15:20.565Z,39.11
2019-04-14T20:17:52.471Z,39.29
2019-04-14T20:20:24.167Z,39.50
2019-04-14T20:22:56.139Z,39.69
2019-04-14T20:25:42.612Z,39.91
2019-04-14T20:28:19.824Z,40.27
2019-04-14T20:30:51.557Z,40.70
2019-04-14T20:33:21.670Z,41.28
2019-04-14T20:35:52.742Z,41.60
2019-04-14T20:38:23.015Z,42.20
2019-04-14T20:40:53.020Z,42.44
2019-04-14T20:43:23.108Z,42.75
2019-04-14T20:45:53.103Z,43.15
2019-04-14T20:48:23.057Z,43.48
2019-04-14T20:50:53.129Z,43.74
2019-04-14T20:53:25.152Z,43.98
2019-04-14T20:55:55.672Z,44.21
2019-04-14T20:58:25.655Z,44.54
2019-04-14T21:00:55.732Z,44.67
2019-04-14T21:03:27.264Z,45.17
2019-04-14T21:06:07.644Z,45.24
2019-04-14T21:08:48.563Z,45.28
2019-04-14T21:11:26.094Z,45.62
2019-04-14T21:13:57.633Z,45.75
2019-04-14T21:16:29.172Z,45.81
2019-04-14T21:19:13.036Z,45.93
2019-04-14T21:21:50.599Z,46.03
2019-04-14T21:24:28.277Z,46.36
2019-04-14T21:26:59.822Z,46.38
2019-04-14T21:29:40.685Z,46.32
2019-04-14T21:32:18.362Z,46.56
2019-04-14T21:34:58.933Z,46.64
2019-04-14T21:37:46.625Z,46.54
2019-04-14T21:40:20.935Z,46.71
2019-04-14T21:42:50.908Z,47.12
2019-04-14T21:45:20.880Z,47.00
2019-04-14T21:47:50.856Z,47.03
2019-04-14T21:50:21.526Z,47.13
2019-04-14T21:52:51.521Z,47.14
2019-04-14T21:55:21.599Z,47.35
2019-04-14T21:57:53.148Z,47.37
2019-04-14T22:00:48.798Z,47.67
2019-04-14T22:03:26.517Z,47.88
2019-04-14T22:05:58.045Z,47.91
2019-04-14T22:08:30.704Z,48.33
2019-04-14T22:11:08.015Z,48.31
2019-04-14T22:13:38.156Z,48.48
2019-04-14T22:16:08.248Z,48.55
2019-04-14T22:18:38.228Z,48.70
2019-04-14T22:21:08.202Z,48.68
2019-04-14T22:23:38.568Z,48.88
2019-04-14T22:26:08.558Z,49.09
2019-04-14T22:28:38.522Z,49.37
2019-04-14T22:31:08.503Z,49.49
2019-04-14T22:33:38.481Z,49.52
2019-04-14T22:36:08.445Z,49.86
2019-04-14T22:38:38.435Z,49.75
2019-04-14T22:41:08.383Z,50.08
2019-04-14T22:43:38.355Z,50.19
2019-04-14T22:46:08.423Z,50.36
2019-04-14T22:48:39.544Z,50.55
2019-04-14T22:51:09.768Z,50.67
2019-04-14T22:53:39.833Z,50.91
2019-04-14T22:56:09.910Z,51.11
2019-04-14T22:58:39.887Z,51.48
2019-04-14T23:01:23.711Z,51.62
2019-04-14T23:04:11.625Z,51.79
2019-04-14T23:06:59.667Z,51.90
2019-04-14T23:09:31.288Z,52.11
2019-04-14T23:12:12.080Z,52.26
2019-04-14T23:15:01.927Z,52.27
2019-04-14T23:17:33.573Z,52.41
2019-04-14T23:20:12.622Z,52.54
2019-04-14T23:22:44.255Z,52.74
2019-04-14T23:25:14.452Z,53.09
2019-04-14T23:27:44.524Z,53.08
2019-04-14T23:30:14.815Z,53.46
2019-04-14T23:32:44.883Z,53.41
2019-04-14T23:35:14.971Z,53.62
2019-04-14T23:37:45.054Z,53.69
2019-04-14T23:40:15.046Z,54.11
2019-04-14T23:42:45.026Z,54.14
2019-04-14T23:45:15.233Z,54.28
2019-04-14T23:47:45.211Z,54.40
2019-04-14T23:50:15.207Z,54.54
2019-04-14T23:52:45.181Z,54.87
2019-04-14T23:55:15.172Z,55.02
2019-04-14T23:57:45.142Z,55.03
